Winchester, Arkansas
Current Conditions -  °F | °C
As of 9:53 PM on Wednesday 26 Nov 2014 (Local Time) from KLLQ Reporting Station
Clear Clear  
Wind Chill: 50°   Ceiling: Unl
Heat Index: 50°   Visibility: 10mi
Dew Point: 29°   Wind: 8mph
Humidity: 44%   Direction: 290°WNW
Pressure: 30.23"   Gusts: NA
Location:  33.77°N, 91.47°W
Report Text: KLLQ 270353Z AUTO 29007KT 10SM CLR 10/M02 A3023 RMK AO2 SLP236 T01001017
Loading
Personal Weather Stations






























Interactive Weather Map New forecast layout! Learn more

10-Day Weather Forecast

Advertisements
Track Severe Weather on mobile